sensor_id;sensor_type;location;lat;lon;timestamp;temperature;humidity
31515;DHT22;40526;52.088;17.020;2024-03-25T00:04:24;5.40;99.90
31515;DHT22;40526;52.088;17.020;2024-03-25T00:09:27;5.40;99.90
31515;DHT22;40526;52.088;17.020;2024-03-25T00:19:32;5.40;99.90
31515;DHT22;40526;52.088;17.020;2024-03-25T00:24:36;5.30;99.90
31515;DHT22;40526;52.088;17.020;2024-03-25T00:29:39;5.20;99.90
31515;DHT22;40526;52.088;17.020;2024-03-25T00:34:41;5.20;99.90
31515;DHT22;40526;52.088;17.020;2024-03-25T00:39:44;5.10;99.90
31515;DHT22;40526;52.088;17.020;2024-03-25T00:44:47;5.20;99.90
31515;DHT22;40526;52.088;17.020;2024-03-25T00:49:49;5.20;99.90
31515;DHT22;40526;52.088;17.020;2024-03-25T00:54:53;5.30;99.90
31515;DHT22;40526;52.088;17.020;2024-03-25T00:59:55;5.30;99.90
31515;DHT22;40526;52.088;17.020;2024-03-25T01:04:58;5.30;99.90
31515;DHT22;40526;52.088;17.020;2024-03-25T01:10:02;5.30;99.90
31515;DHT22;40526;52.088;17.020;2024-03-25T01:15:05;5.40;99.90
31515;DHT22;40526;52.088;17.020;2024-03-25T01:20:09;5.50;99.90
31515;DHT22;40526;52.088;17.020;2024-03-25T01:25:13;5.50;99.90
31515;DHT22;40526;52.088;17.020;2024-03-25T01:30:15;5.40;99.90
31515;DHT22;40526;52.088;17.020;2024-03-25T01:35:19;5.30;99.90
31515;DHT22;40526;52.088;17.020;2024-03-25T01:40:23;5.30;99.90
31515;DHT22;40526;52.088;17.020;2024-03-25T01:45:29;5.10;99.90
31515;DHT22;40526;52.088;17.020;2024-03-25T01:50:34;4.90;99.90
31515;DHT22;40526;52.088;17.020;2024-03-25T01:55:39;4.70;99.90
31515;DHT22;40526;52.088;17.020;2024-03-25T02:05:47;4.50;99.90
31515;DHT22;40526;52.088;17.020;2024-03-25T02:10:51;4.60;99.90
31515;DHT22;40526;52.088;17.020;2024-03-25T02:15:54;4.60;99.90
31515;DHT22;40526;52.088;17.020;2024-03-25T02:21:00;4.50;99.90
31515;DHT22;40526;52.088;17.020;2024-03-25T02:26:04;4.50;99.90
31515;DHT22;40526;52.088;17.020;2024-03-25T02:31:06;4.50;99.90
31515;DHT22;40526;52.088;17.020;2024-03-25T02:41:12;4.40;99.90
31515;DHT22;40526;52.088;17.020;2024-03-25T02:46:14;4.40;99.90
31515;DHT22;40526;52.088;17.020;2024-03-25T02:51:17;4.50;99.90
31515;DHT22;40526;52.088;17.020;2024-03-25T02:56:21;4.60;99.90
31515;DHT22;40526;52.088;17.020;2024-03-25T03:01:23;4.60;99.90
31515;DHT22;40526;52.088;17.020;2024-03-25T03:06:25;4.60;99.90
31515;DHT22;40526;52.088;17.020;2024-03-25T03:11:29;4.60;99.90
31515;DHT22;40526;52.088;17.020;2024-03-25T03:16:31;4.60;99.90
31515;DHT22;40526;52.088;17.020;2024-03-25T03:21:33;4.70;99.90
31515;DHT22;40526;52.088;17.020;2024-03-25T03:26:38;4.70;99.90
31515;DHT22;40526;52.088;17.020;2024-03-25T03:36:43;4.60;99.90
31515;DHT22;40526;52.088;17.020;2024-03-25T03:41:46;4.70;99.90
31515;DHT22;40526;52.088;17.020;2024-03-25T03:46:49;4.70;99.90
31515;DHT22;40526;52.088;17.020;2024-03-25T03:56:55;4.80;99.90
31515;DHT22;40526;52.088;17.020;2024-03-25T04:01:57;4.70;99.90
31515;DHT22;40526;52.088;17.020;2024-03-25T04:07:00;4.80;99.90
31515;DHT22;40526;52.088;17.020;2024-03-25T04:12:04;4.70;99.90
31515;DHT22;40526;52.088;17.020;2024-03-25T04:27:16;4.70;99.90
31515;DHT22;40526;52.088;17.020;2024-03-25T04:32:21;4.80;99.90
31515;DHT22;40526;52.088;17.020;2024-03-25T04:37:23;4.70;99.90
31515;DHT22;40526;52.088;17.020;2024-03-25T04:42:26;4.80;99.90
31515;DHT22;40526;52.088;17.020;2024-03-25T04:47:27;4.80;99.90
31515;DHT22;40526;52.088;17.020;2024-03-25T04:52:28;4.70;99.90
31515;DHT22;40526;52.088;17.020;2024-03-25T04:57:31;4.80;99.90
31515;DHT22;40526;52.088;17.020;2024-03-25T05:02:32;4.70;99.90
31515;DHT22;40526;52.088;17.020;2024-03-25T05:07:34;4.80;99.90
31515;DHT22;40526;52.088;17.020;2024-03-25T05:12:37;4.70;99.90
31515;DHT22;40526;52.088;17.020;2024-03-25T05:17:39;4.70;99.90
31515;DHT22;40526;52.088;17.020;2024-03-25T05:27:43;4.70;99.90
31515;DHT22;40526;52.088;17.020;2024-03-25T05:32:44;4.60;99.90
31515;DHT22;40526;52.088;17.020;2024-03-25T05:37:45;4.60;99.90
31515;DHT22;40526;52.088;17.020;2024-03-25T05:42:48;4.60;99.90
31515;DHT22;40526;52.088;17.020;2024-03-25T05:47:50;4.60;99.90
31515;DHT22;40526;52.088;17.020;2024-03-25T05:52:51;4.70;99.90
31515;DHT22;40526;52.088;17.020;2024-03-25T05:57:54;4.80;99.90
31515;DHT22;40526;52.088;17.020;2024-03-25T06:02:56;4.90;99.90
31515;DHT22;40526;52.088;17.020;2024-03-25T06:07:57;5.10;99.90
31515;DHT22;40526;52.088;17.020;2024-03-25T06:13:00;5.20;99.90
31515;DHT22;40526;52.088;17.020;2024-03-25T06:23:02;5.80;99.90
31515;DHT22;40526;52.088;17.020;2024-03-25T06:28:06;5.90;99.90
31515;DHT22;40526;52.088;17.020;2024-03-25T06:33:07;6.00;99.90
31515;DHT22;40526;52.088;17.020;2024-03-25T06:38:27;5.90;99.90
31515;DHT22;40526;52.088;17.020;2024-03-25T06:43:30;5.90;99.90
31515;DHT22;40526;52.088;17.020;2024-03-25T06:48:31;6.10;99.90
31515;DHT22;40526;52.088;17.020;2024-03-25T06:58:36;6.30;99.90
31515;DHT22;40526;52.088;17.020;2024-03-25T07:03:37;6.30;99.90
31515;DHT22;40526;52.088;17.020;2024-03-25T07:08:39;6.40;99.90
31515;DHT22;40526;52.088;17.020;2024-03-25T07:13:42;6.50;99.90
31515;DHT22;40526;52.088;17.020;2024-03-25T07:18:43;6.50;99.90
31515;DHT22;40526;52.088;17.020;2024-03-25T07:28:47;6.60;99.90
31515;DHT22;40526;52.088;17.020;2024-03-25T07:33:49;6.50;99.90
31515;DHT22;40526;52.088;17.020;2024-03-25T07:43:54;6.50;99.90
31515;DHT22;40526;52.088;17.020;2024-03-25T08:04:02;6.70;99.90
31515;DHT22;40526;52.088;17.020;2024-03-25T08:09:03;6.80;99.90
31515;DHT22;40526;52.088;17.020;2024-03-25T08:19:09;6.90;99.90
31515;DHT22;40526;52.088;17.020;2024-03-25T08:29:14;6.90;99.90
31515;DHT22;40526;52.088;17.020;2024-03-25T08:34:15;6.80;99.90
31515;DHT22;40526;52.088;17.020;2024-03-25T08:49:21;7.90;99.90
31515;DHT22;40526;52.088;17.020;2024-03-25T08:54:23;8.30;99.90
31515;DHT22;40526;52.088;17.020;2024-03-25T08:59:26;8.70;99.90
31515;DHT22;40526;52.088;17.020;2024-03-25T09:09:29;8.40;99.90
31515;DHT22;40526;52.088;17.020;2024-03-25T09:14:49;8.20;99.90
31515;DHT22;40526;52.088;17.020;2024-03-25T09:19:51;8.10;99.90
31515;DHT22;40526;52.088;17.020;2024-03-25T09:24:52;8.60;99.90
31515;DHT22;40526;52.088;17.020;2024-03-25T09:29:56;9.00;99.90
31515;DHT22;40526;52.088;17.020;2024-03-25T09:34:58;9.20;99.90
31515;DHT22;40526;52.088;17.020;2024-03-25T09:40:00;8.90;99.90
31515;DHT22;40526;52.088;17.020;2024-03-25T09:45:05;8.80;99.90
31515;DHT22;40526;52.088;17.020;2024-03-25T09:50:10;9.20;99.90
31515;DHT22;40526;52.088;17.020;2024-03-25T09:55:13;9.90;99.90
31515;DHT22;40526;52.088;17.020;2024-03-25T10:00:16;10.10;99.90
31515;DHT22;40526;52.088;17.020;2024-03-25T10:15:23;9.40;99.90
31515;DHT22;40526;52.088;17.020;2024-03-25T10:20:25;9.20;99.90
31515;DHT22;40526;52.088;17.020;2024-03-25T10:25:27;9.00;99.90
31515;DHT22;40526;52.088;17.020;2024-03-25T10:30:30;9.40;99.90
31515;DHT22;40526;52.088;17.020;2024-03-25T10:50:43;11.00;99.90
31515;DHT22;40526;52.088;17.020;2024-03-25T11:00:52;10.40;99.90
31515;DHT22;40526;52.088;17.020;2024-03-25T11:36:09;11.50;99.90
31515;DHT22;40526;52.088;17.020;2024-03-25T11:41:10;11.30;99.90
31515;DHT22;40526;52.088;17.020;2024-03-25T12:11:32;6.90;99.90
31515;DHT22;40526;52.088;17.020;2024-03-25T12:21:36;6.60;99.90
31515;DHT22;40526;52.088;17.020;2024-03-25T12:31:39;7.00;99.90
31515;DHT22;40526;52.088;17.020;2024-03-25T12:41:43;8.00;99.90
31515;DHT22;40526;52.088;17.020;2024-03-25T13:06:55;9.50;99.90
31515;DHT22;40526;52.088;17.020;2024-03-25T13:11:56;10.20;99.90
31515;DHT22;40526;52.088;17.020;2024-03-25T13:27:02;10.30;99.90
31515;DHT22;40526;52.088;17.020;2024-03-25T13:32:04;10.20;99.90
31515;DHT22;40526;52.088;17.020;2024-03-25T13:37:06;10.30;99.90
31515;DHT22;40526;52.088;17.020;2024-03-25T13:42:08;10.70;99.90
31515;DHT22;40526;52.088;17.020;2024-03-25T13:52:12;11.30;99.90
31515;DHT22;40526;52.088;17.020;2024-03-25T14:02:15;11.40;99.90
31515;DHT22;40526;52.088;17.020;2024-03-25T14:07:18;11.50;99.90
31515;DHT22;40526;52.088;17.020;2024-03-25T14:12:20;11.50;99.90
31515;DHT22;40526;52.088;17.020;2024-03-25T14:17:21;11.40;99.90
31515;DHT22;40526;52.088;17.020;2024-03-25T14:22:24;11.20;99.90
31515;DHT22;40526;52.088;17.020;2024-03-25T14:27:26;10.90;99.90
31515;DHT22;40526;52.088;17.020;2024-03-25T14:32:28;10.60;99.90
31515;DHT22;40526;52.088;17.020;2024-03-25T14:37:30;10.30;99.90
31515;DHT22;40526;52.088;17.020;2024-03-25T14:42:32;9.80;99.90
31515;DHT22;40526;52.088;17.020;2024-03-25T14:47:33;9.10;99.90
31515;DHT22;40526;52.088;17.020;2024-03-25T15:02:39;8.60;99.90
31515;DHT22;40526;52.088;17.020;2024-03-25T15:07:42;8.50;99.90
31515;DHT22;40526;52.088;17.020;2024-03-25T15:12:46;8.30;99.90
31515;DHT22;40526;52.088;17.020;2024-03-25T15:17:47;8.10;99.90
31515;DHT22;40526;52.088;17.020;2024-03-25T15:22:51;7.80;99.90
31515;DHT22;40526;52.088;17.020;2024-03-25T15:27:52;7.40;99.90
31515;DHT22;40526;52.088;17.020;2024-03-25T15:37:56;7.40;99.90
31515;DHT22;40526;52.088;17.020;2024-03-25T15:48:00;7.30;99.90
31515;DHT22;40526;52.088;17.020;2024-03-25T15:53:03;7.40;99.90
31515;DHT22;40526;52.088;17.020;2024-03-25T16:08:09;7.50;99.90
31515;DHT22;40526;52.088;17.020;2024-03-25T16:13:10;7.40;99.90
31515;DHT22;40526;52.088;17.020;2024-03-25T16:18:11;7.20;99.90
31515;DHT22;40526;52.088;17.020;2024-03-25T16:23:14;7.10;99.90
31515;DHT22;40526;52.088;17.020;2024-03-25T16:28:15;7.10;99.90
31515;DHT22;40526;52.088;17.020;2024-03-25T16:38:20;6.90;99.90
31515;DHT22;40526;52.088;17.020;2024-03-25T16:43:21;6.90;99.90
31515;DHT22;40526;52.088;17.020;2024-03-25T16:53:26;6.90;99.90
31515;DHT22;40526;52.088;17.020;2024-03-25T17:08:32;7.00;99.90
31515;DHT22;40526;52.088;17.020;2024-03-25T17:13:33;6.50;99.90
31515;DHT22;40526;52.088;17.020;2024-03-25T17:23:37;6.10;99.90
31515;DHT22;40526;52.088;17.020;2024-03-25T17:38:43;5.40;99.90
31515;DHT22;40526;52.088;17.020;2024-03-25T17:43:44;5.40;99.90
31515;DHT22;40526;52.088;17.020;2024-03-25T17:53:49;5.10;99.90
31515;DHT22;40526;52.088;17.020;2024-03-25T18:49:11;4.20;99.90
31515;DHT22;40526;52.088;17.020;2024-03-25T19:14:22;3.60;99.90
31515;DHT22;40526;52.088;17.020;2024-03-25T19:34:29;3.40;99.90
31515;DHT22;40526;52.088;17.020;2024-03-25T19:59:39;3.00;99.90
31515;DHT22;40526;52.088;17.020;2024-03-25T20:34:53;3.00;99.90
31515;DHT22;40526;52.088;17.020;2024-03-25T20:55:02;2.70;99.90
31515;DHT22;40526;52.088;17.020;2024-03-25T21:00:04;2.50;99.90
31515;DHT22;40526;52.088;17.020;2024-03-25T21:10:09;2.40;99.90
31515;DHT22;40526;52.088;17.020;2024-03-25T21:20:12;2.20;99.90
31515;DHT22;40526;52.088;17.020;2024-03-25T21:25:16;2.10;99.90
31515;DHT22;40526;52.088;17.020;2024-03-25T21:30:17;2.30;99.90
31515;DHT22;40526;52.088;17.020;2024-03-25T21:35:19;2.30;99.90
31515;DHT22;40526;52.088;17.020;2024-03-25T21:40:21;2.40;99.90
31515;DHT22;40526;52.088;17.020;2024-03-25T21:45:23;2.30;99.90
31515;DHT22;40526;52.088;17.020;2024-03-25T21:55:28;2.20;99.90
31515;DHT22;40526;52.088;17.020;2024-03-25T22:05:31;2.10;99.90
31515;DHT22;40526;52.088;17.020;2024-03-25T22:10:34;2.10;99.90
31515;DHT22;40526;52.088;17.020;2024-03-25T22:15:35;2.20;99.90
31515;DHT22;40526;52.088;17.020;2024-03-25T22:20:37;2.10;99.90
31515;DHT22;40526;52.088;17.020;2024-03-25T22:25:40;2.10;99.90
31515;DHT22;40526;52.088;17.020;2024-03-25T22:35:52;2.10;99.90
31515;DHT22;40526;52.088;17.020;2024-03-25T22:40:55;2.10;99.90
31515;DHT22;40526;52.088;17.020;2024-03-25T22:45:58;2.10;99.90
31515;DHT22;40526;52.088;17.020;2024-03-25T22:51:02;2.00;99.90
31515;DHT22;40526;52.088;17.020;2024-03-25T22:56:06;2.00;99.90
31515;DHT22;40526;52.088;17.020;2024-03-25T23:01:08;1.90;99.90
31515;DHT22;40526;52.088;17.020;2024-03-25T23:06:10;1.90;99.90
31515;DHT22;40526;52.088;17.020;2024-03-25T23:11:13;1.90;99.90
31515;DHT22;40526;52.088;17.020;2024-03-25T23:16:14;1.80;99.90
31515;DHT22;40526;52.088;17.020;2024-03-25T23:21:15;1.80;99.90
31515;DHT22;40526;52.088;17.020;2024-03-25T23:26:18;1.70;99.90
31515;DHT22;40526;52.088;17.020;2024-03-25T23:31:20;1.70;99.90
31515;DHT22;40526;52.088;17.020;2024-03-25T23:36:21;1.70;99.90
31515;DHT22;40526;52.088;17.020;2024-03-25T23:41:23;1.60;99.90
31515;DHT22;40526;52.088;17.020;2024-03-25T23:56:30;1.50;99.90
